Time;durP1;ratioP1;P1;durP2;ratioP2;P2;SDS_P1;SDS_P2;PMS_P1;PMS_P2;Temp;Humidity;BMP_temperature;BMP_pressure;BME280_temperature;BME280_humidity;BME280_pressure;Samples;Min_cycle;Max_cycle;Signal;HPM_P1;HPM_P2
2021/09/08 00:01:18;;;;;;;38.17;25.80;;;15.20;99.90;;;;;;5034432;28;20463;-86
2021/09/08 00:04:21;;;;;;;36.13;25.57;;;15.10;99.90;;;;;;5040592;28;20473;-86
2021/09/08 00:10:09;;;;;;;;;;;;;;;;;;;;;
2021/09/08 00:22:17;;;;;;;30.93;22.23;;;15.20;99.90;;;;;;5035797;28;20534;-85
2021/09/08 00:25:09;;;;;;;32.70;22.77;;;16.60;99.90;;;;;;5040828;28;20454;-85
2021/09/08 00:27:46;;;;;;;28.77;23.60;;;15.20;99.90;;;;;;5040403;28;20516;-85
2021/09/08 00:30:32;;;;;;;28.17;23.03;;;;;;;;;;5038829;28;20457;-85
2021/09/08 00:39:15;;;;;;;24.30;21.00;;;15.00;99.90;;;;;;5040521;28;20435;-86
2021/09/08 00:42:02;;;;;;;33.03;21.37;;;15.00;99.90;;;;;;5041344;28;20481;-86
2021/09/08 00:44:58;;;;;;;31.07;22.37;;;14.90;99.90;;;;;;5040875;28;20463;-86
2021/09/08 00:48:01;;;;;;;28.53;21.23;;;14.90;99.90;;;;;;5041893;28;20451;-86
2021/09/08 00:53:57;;;;;;;28.60;21.43;;;14.80;99.90;;;;;;5023932;28;20538;-86
2021/09/08 01:02:59;;;;;;;;;;;;;;;;;;;;;
2021/09/08 01:05:44;;;;;;;27.27;21.40;;;14.80;99.90;;;;;;5039887;28;20566;-86
2021/09/08 01:08:46;;;;;;;27.37;20.00;;;14.70;99.90;;;;;;5043605;28;20454;-86
2021/09/08 01:14:41;;;;;;;28.47;21.43;;;16.20;99.90;;;;;;5039770;28;20521;-85
2021/09/08 01:17:34;;;;;;;26.97;22.00;;;14.70;99.90;;;;;;5016164;28;20852;-85
2021/09/08 01:23:45;;;;;;;26.07;21.10;;;14.70;99.90;;;;;;5037474;28;20432;-86
2021/09/08 01:27:03;;;;;;;28.17;20.80;;;14.70;99.90;;;;;;4993967;28;20546;-85
2021/09/08 01:29:57;;;;;;;27.10;21.00;;;;;;;;;;5050056;28;20451;-86
2021/09/08 01:32:43;;;;;;;27.27;20.60;;;14.70;99.90;;;;;;5058589;28;20501;-85
2021/09/08 01:35:36;;;;;;;24.30;20.70;;;15.50;99.90;;;;;;5056923;28;20435;-86
2021/09/08 01:38:24;;;;;;;27.80;20.80;;;14.40;99.90;;;;;;5045521;28;20447;-86
2021/09/08 01:41:17;;;;;;;25.37;21.10;;;14.40;99.90;;;;;;5042711;28;20533;-86
2021/09/08 01:44:17;;;;;;;32.27;21.47;;;14.20;99.90;;;;;;5042943;28;20456;-86
2021/09/08 01:47:11;;;;;;;27.97;21.53;;;14.30;99.90;;;;;;4990806;28;20491;-85
2021/09/08 01:50:15;;;;;;;33.03;22.93;;;14.30;99.90;;;;;;4976128;28;20991;-85
2021/09/08 01:53:01;;;;;;;25.37;20.07;;;15.70;99.90;;;;;;5036748;28;20475;-85
2021/09/08 01:55:42;;;;;;;29.73;21.20;;;14.90;99.90;;;;;;5037658;28;20466;-85
2021/09/08 01:58:30;;;;;;;29.03;21.80;;;14.20;99.90;;;;;;5039489;28;20438;-86
2021/09/08 02:04:26;;;;;;;26.33;20.50;;;14.20;99.90;;;;;;5040697;28;20479;-86
2021/09/08 02:07:37;;;;;;;30.03;20.03;;;14.30;99.90;;;;;;5039321;28;20574;-86
2021/09/08 02:13:37;;;;;;;28.23;20.20;;;13.90;99.90;;;;;;5018928;28;20479;-85
2021/09/08 02:16:33;;;;;;;28.33;19.47;;;14.10;99.90;;;;;;5002066;28;20447;-86
2021/09/08 02:27:51;;;;;;;26.17;20.00;;;14.10;99.90;;;;;;5039112;28;20759;-85
2021/09/08 02:33:30;;;;;;;28.43;21.27;;;14.00;99.90;;;;;;5038258;28;20459;-86
2021/09/08 02:36:23;;;;;;;24.40;19.20;;;14.00;99.90;;;;;;5044410;28;20451;-86
2021/09/08 02:39:17;;;;;;;24.73;19.33;;;14.90;99.90;;;;;;5041297;28;20466;-86
2021/09/08 02:42:05;;;;;;;24.97;20.40;;;13.90;99.90;;;;;;5042178;28;20479;-86
2021/09/08 02:47:39;;;;;;;25.67;18.90;;;13.80;99.90;;;;;;5041823;28;20463;-85
2021/09/08 02:50:23;;;;;;;25.33;17.07;;;13.90;99.90;;;;;;5049532;28;20503;-84
2021/09/08 02:56:16;;;;;;;24.40;18.07;;;13.90;99.90;;;;;;5055305;28;20459;-84
2021/09/08 03:05:46;;;;;;;23.07;17.90;;;13.70;99.90;;;;;;5043771;28;20469;-85
2021/09/08 03:08:46;;;;;;;24.10;18.40;;;13.80;99.90;;;;;;5056370;28;20454;-84
2021/09/08 03:14:44;;;;;;;19.10;16.63;;;13.80;99.90;;;;;;5040455;28;20439;-84
2021/09/08 03:20:20;;;;;;;;;;;;;;;;;;;;;
2021/09/08 03:23:24;;;;;;;24.10;17.13;;;13.90;99.90;;;;;;5036660;28;20890;-85
2021/09/08 03:29:00;;;;;;;22.33;16.13;;;13.80;99.90;;;;;;5043753;28;20913;-86
2021/09/08 03:32:04;;;;;;;21.57;17.97;;;13.70;99.90;;;;;;5040449;28;20455;-86
2021/09/08 03:34:56;;;;;;;20.80;16.20;;;13.80;99.90;;;;;;5036162;28;20451;-84
2021/09/08 03:37:43;;;;;;;24.23;18.00;;;13.90;99.90;;;;;;5040575;28;20518;-85
2021/09/08 03:40:38;;;;;;;21.97;16.87;;;15.10;99.90;;;;;;5036191;28;20451;-84
2021/09/08 03:43:29;;;;;;;22.83;16.50;;;13.90;99.90;;;;;;5034757;28;20515;-84
2021/09/08 03:46:31;;;;;;;21.77;16.90;;;14.00;99.90;;;;;;5039295;28;20474;-85
2021/09/08 03:52:07;;;;;;;25.13;18.33;;;13.80;99.90;;;;;;5047755;28;20499;-85
2021/09/08 03:54:46;;;;;;;24.10;18.57;;;;;;;;;;5056679;28;20455;-83
2021/09/08 03:57:32;;;;;;;26.60;17.00;;;13.90;99.90;;;;;;5043330;28;20789;-85
2021/09/08 04:00:15;;;;;;;23.20;17.60;;;16.90;99.90;;;;;;5041249;28;20810;-86
2021/09/08 04:03:12;;;;;;;21.98;17.33;;;13.80;99.90;;;;;;5042564;28;20447;-85
2021/09/08 04:09:23;;;;;;;26.60;18.03;;;13.70;99.90;;;;;;5059223;28;20435;-84
2021/09/08 04:12:03;;;;;;;22.70;17.50;;;;;;;;;;5058152;28;20467;-86
2021/09/08 04:18:08;;;;;;;24.27;17.10;;;13.80;99.90;;;;;;5045882;28;20442;-86
2021/09/08 04:21:17;;;;;;;21.37;17.13;;;13.80;99.90;;;;;;4982987;28;20460;-86
2021/09/08 04:24:13;;;;;;;25.80;18.23;;;13.70;99.90;;;;;;4983059;28;20452;-85
2021/09/08 04:27:04;;;;;;;24.13;17.23;;;13.40;99.90;;;;;;5054582;28;20478;-86
2021/09/08 04:30:10;;;;;;;19.83;16.03;;;13.70;99.90;;;;;;5045417;28;20451;-85
2021/09/08 04:32:52;;;;;;;21.63;17.20;;;13.60;99.90;;;;;;5039279;28;20481;-85
2021/09/08 04:35:35;;;;;;;24.27;16.60;;;13.60;99.90;;;;;;5046050;28;20447;-85
2021/09/08 04:38:16;;;;;;;28.37;17.17;;;13.70;99.90;;;;;;5046869;28;20435;-85
2021/09/08 04:43:55;;;;;;;25.97;18.10;;;14.00;99.90;;;;;;5045004;28;20490;-85
2021/09/08 04:46:45;;;;;;;26.57;17.90;;;13.70;99.90;;;;;;5044828;28;20578;-85
2021/09/08 04:53:03;;;;;;;26.03;17.97;;;13.70;99.90;;;;;;5042332;28;20489;-85
2021/09/08 04:55:38;;;;;;;23.23;16.90;;;14.20;99.90;;;;;;5044375;28;20473;-85
2021/09/08 05:04:39;;;;;;;;;;;;;;;;;;;;;
2021/09/08 05:10:38;;;;;;;37.40;22.30;;;14.00;99.90;;;;;;5046705;28;20447;-86
2021/09/08 05:13:41;;;;;;;45.90;21.10;;;13.70;99.90;;;;;;4982676;28;20465;-86
2021/09/08 05:16:23;;;;;;;32.23;19.40;;;;;;;;;;4993206;28;20451;-85
2021/09/08 05:18:59;;;;;;;45.33;21.77;;;13.90;99.90;;;;;;5056013;28;20451;-84
2021/09/08 05:21:52;;;;;;;41.13;21.60;;;14.00;99.90;;;;;;5056379;28;20454;-84
2021/09/08 05:24:21;;;;;;;32.50;20.53;;;;;;;;;;5053317;28;20447;-85
2021/09/08 05:26:48;;;;;;;40.13;21.77;;;;;;;;;;5045150;28;21000;-85
2021/09/08 05:29:26;;;;;;;44.13;22.80;;;14.30;99.90;;;;;;5044530;28;20439;-86
2021/09/08 05:32:09;;;;;;;37.33;20.90;;;14.40;99.90;;;;;;5045119;28;20471;-85
2021/09/08 05:54:06;;;;;;;31.07;21.33;;;14.80;99.90;;;;;;5924405;22;20436;-86
2021/09/08 05:56:33;;;;;;;28.50;21.57;;;14.70;99.90;;;;;;5022166;28;20424;-87
2021/09/08 05:59:00;;;;;;;32.40;20.90;;;14.80;99.90;;;;;;5027070;28;20463;-86
2021/09/08 06:01:26;;;;;;;29.20;19.57;;;14.70;99.90;;;;;;5026873;28;20432;-87
2021/09/08 06:03:53;;;;;;;27.57;21.27;;;14.70;99.90;;;;;;5021744;28;20797;-87
2021/09/08 06:06:20;;;;;;;25.43;19.30;;;14.80;99.90;;;;;;5019436;28;20800;-88
2021/09/08 06:15:25;;;;;;;31.50;21.33;;;15.00;99.90;;;;;;5053476;28;20628;-85
2021/09/08 06:17:55;;;;;;;25.20;20.03;;;15.00;99.90;;;;;;5055776;28;20476;-85
2021/09/08 06:20:22;;;;;;;29.77;20.03;;;15.00;99.90;;;;;;5057875;28;20471;-86
2021/09/08 06:22:49;;;;;;;33.43;22.90;;;14.80;99.90;;;;;;5055523;28;20504;-86
2021/09/08 06:25:28;;;;;;;29.17;19.83;;;15.50;99.90;;;;;;5056386;28;20466;-86
2021/09/08 06:28:12;;;;;;;25.33;18.67;;;15.30;99.90;;;;;;5056002;28;20467;-84
2021/09/08 06:30:46;;;;;;;29.30;19.67;;;15.40;99.90;;;;;;5070139;28;20462;-84
2021/09/08 06:33:30;;;;;;;31.70;18.90;;;15.40;99.90;;;;;;5077031;28;20442;-84
2021/09/08 06:45:40;;;;;;;;;;;;;;;;;;;;;
2021/09/08 06:49:04;;;;;;;23.70;18.07;;;15.90;99.90;;;;;;5076718;28;20520;-84
2021/09/08 06:55:46;;;;;;;26.17;18.73;;;16.60;99.90;;;;;;5065767;28;20828;-86
2021/09/08 07:04:28;;;;;;;21.73;15.57;;;16.30;99.90;;;;;;5056104;28;20442;-85
2021/09/08 07:07:26;;;;;;;24.57;15.47;;;18.10;99.90;;;;;;5050716;28;20470;-85
2021/09/08 07:10:08;;;;;;;19.50;16.10;;;16.50;99.90;;;;;;5039144;22;20527;-85
2021/09/08 07:12:45;;;;;;;19.17;14.90;;;15.40;99.90;;;;;;5018393;28;20425;-85
2021/09/08 07:15:25;;;;;;;19.33;14.40;;;16.60;99.90;;;;;;5019022;28;20436;-85
2021/09/08 07:18:20;;;;;;;17.60;15.00;;;16.70;99.90;;;;;;5018835;28;20553;-85
2021/09/08 07:21:00;;;;;;;17.07;14.53;;;17.00;99.90;;;;;;5005239;28;20468;-85
2021/09/08 07:23:53;;;;;;;20.37;14.97;;;16.80;99.90;;;;;;5009072;28;20882;-85
2021/09/08 07:35:35;;;;;;;18.77;15.10;;;18.90;99.90;;;;;;5000051;28;20452;-85
2021/09/08 07:38:50;;;;;;;;;;;;;;;;;;;;;
2021/09/08 07:41:55;;;;;;;27.40;18.23;;;17.40;99.90;;;;;;4988337;28;20525;-85
2021/09/08 07:44:51;;;;;;;21.37;14.83;;;19.10;99.90;;;;;;5002369;28;20461;-85
2021/09/08 07:50:31;;;;;;;18.47;13.83;;;17.00;99.90;;;;;;5015949;28;20476;-85
2021/09/08 07:56:26;;;;;;;26.53;16.07;;;17.70;99.90;;;;;;5000439;28;20457;-85
2021/09/08 07:59:27;;;;;;;32.50;18.73;;;17.20;99.90;;;;;;5005060;28;20475;-85
2021/09/08 08:02:18;;;;;;;22.63;17.37;;;16.50;99.90;;;;;;5004752;28;20441;-86
2021/09/08 08:05:17;;;;;;;;;;;;;;;;;;;;;
2021/09/08 08:08:20;;;;;;;21.77;16.37;;;18.10;99.90;;;;;;5006564;28;20583;-85
2021/09/08 08:14:13;;;;;;;20.67;16.23;;;17.70;99.90;;;;;;4999700;28;20517;-85
2021/09/08 08:17:01;;;;;;;21.90;16.87;;;18.50;99.90;;;;;;5002317;28;20467;-85
2021/09/08 08:19:54;;;;;;;27.67;20.80;;;18.60;99.90;;;;;;5004105;28;20476;-85
2021/09/08 08:22:40;;;;;;;17.60;14.80;;;18.50;99.90;;;;;;5003714;28;20452;-85
2021/09/08 08:28:05;;;;;;;19.20;13.67;;;18.80;99.90;;;;;;5000814;28;20487;-85
2021/09/08 08:30:56;;;;;;;;;;;;;;;;;;;;;
2021/09/08 08:36:42;;;;;;;18.47;14.53;;;19.00;99.90;;;;;;4999427;28;20445;-85
2021/09/08 08:40:03;;;;;;;16.07;14.30;;;18.80;99.90;;;;;;5000826;28;20451;-85
2021/09/08 08:42:48;;;;;;;15.23;12.40;;;19.10;99.90;;;;;;5000871;28;20452;-85
2021/09/08 08:54:12;;;;;;;18.20;12.73;;;19.30;99.90;;;;;;5003640;28;20523;-85
2021/09/08 09:00:03;;;;;;;17.60;12.70;;;19.70;99.90;;;;;;5001932;28;20481;-85
2021/09/08 09:03:05;;;;;;;;;;;;;;;;;;;;;
2021/09/08 09:06:00;;;;;;;14.33;11.90;;;19.50;99.90;;;;;;5018115;28;20398;-85
2021/09/08 09:18:05;;;;;;;13.73;11.13;;;19.80;99.90;;;;;;4999500;28;20441;-85
2021/09/08 09:21:16;;;;;;;12.43;11.13;;;19.60;99.90;;;;;;4998705;28;20517;-85
2021/09/08 09:35:45;;;;;;;13.27;11.23;;;20.30;99.90;;;;;;5000277;28;20453;-85
2021/09/08 09:38:15;;;;;;;14.93;11.17;;;20.30;99.90;;;;;;5003732;28;20437;-85
2021/09/08 09:43:51;;;;;;;14.03;11.17;;;;;;;;;;4993093;28;20449;-85
2021/09/08 09:46:31;;;;;;;17.13;11.57;;;;;;;;;;5005698;28;20432;-85
2021/09/08 09:49:28;;;;;;;25.57;14.93;;;20.70;99.90;;;;;;5003592;28;20491;-85
2021/09/08 09:55:21;;;;;;;13.20;10.93;;;22.60;99.90;;;;;;4995789;28;20472;-85
2021/09/08 09:58:37;;;;;;;13.03;11.63;;;21.50;99.90;;;;;;5000301;28;20434;-85
2021/09/08 10:01:53;;;;;;;10.87;9.80;;;20.90;99.90;;;;;;5000021;28;20936;-85
2021/09/08 10:07:15;;;;;;;13.37;11.23;;;20.50;99.90;;;;;;5000942;28;20459;-85
2021/09/08 10:13:12;;;;;;;11.80;10.27;;;21.00;99.90;;;;;;5003287;28;20452;-86
2021/09/08 10:25:04;;;;;;;14.90;11.10;;;21.20;99.90;;;;;;4995256;28;20516;-84
2021/09/08 10:30:46;;;;;;;10.33;9.33;;;;;;;;;;4996351;28;20499;-85
2021/09/08 10:36:14;;;;;;;14.80;10.73;;;21.20;99.90;;;;;;4998544;28;20449;-85
2021/09/08 10:38:49;;;;;;;13.20;9.57;;;21.70;99.90;;;;;;4998349;28;20481;-85
2021/09/08 10:41:51;;;;;;;14.30;11.83;;;21.20;99.90;;;;;;4997823;28;20511;-85
2021/09/08 10:48:40;;;;;;;11.83;10.40;;;22.40;99.90;;;;;;4996301;28;20453;-86
2021/09/08 11:01:18;;;;;;;12.70;11.40;;;21.60;99.90;;;;;;4996103;28;20449;-86
2021/09/08 11:07:30;;;;;;;12.93;11.50;;;22.90;99.90;;;;;;4993361;28;20982;-86
2021/09/08 11:09:57;;;;;;;16.73;13.57;;;;;;;;;;4996534;28;20489;-86
2021/09/08 11:12:54;;;;;;;12.10;10.90;;;21.70;99.90;;;;;;4998501;28;20426;-85
2021/09/08 11:15:53;;;;;;;13.50;12.10;;;21.10;99.90;;;;;;4998195;28;20456;-86
2021/09/08 11:18:46;;;;;;;14.17;11.43;;;22.10;99.90;;;;;;4999350;28;20486;-85
2021/09/08 11:21:52;;;;;;;11.57;10.30;;;21.90;99.90;;;;;;5000063;28;20483;-85
2021/09/08 11:24:43;;;;;;;15.37;11.90;;;22.00;99.90;;;;;;4999763;28;20449;-85
2021/09/08 11:27:30;;;;;;;12.27;11.00;;;21.90;99.90;;;;;;4999869;28;20440;-86
2021/09/08 11:30:29;;;;;;;16.17;12.40;;;23.10;99.90;;;;;;4998747;28;20488;-86
2021/09/08 11:39:06;;;;;;;13.53;11.43;;;22.30;99.90;;;;;;4997033;28;20563;-87
2021/09/08 11:48:02;;;;;;;13.17;9.80;;;22.10;99.90;;;;;;5009853;28;20432;-86
2021/09/08 11:56:25;;;;;;;17.17;9.87;;;22.10;99.90;;;;;;5016271;28;20480;-85
2021/09/08 11:59:26;;;;;;;11.60;9.57;;;22.30;99.90;;;;;;5016047;28;20461;-85
2021/09/08 12:02:32;;;;;;;11.27;10.00;;;25.40;99.90;;;;;;5009226;28;20433;-85
2021/09/08 12:08:37;;;;;;;10.10;9.03;;;22.10;99.90;;;;;;5018801;28;20456;-85
2021/09/08 12:11:35;;;;;;;12.43;9.37;;;22.50;99.90;;;;;;5012434;28;20467;-86
2021/09/08 12:14:33;;;;;;;14.67;9.93;;;22.40;99.90;;;;;;5007155;28;20460;-86
2021/09/08 12:23:51;;;;;;;10.00;9.00;;;23.00;99.90;;;;;;4951609;28;20451;-85
2021/09/08 12:26:47;;;;;;;11.00;8.67;;;22.30;99.90;;;;;;5004059;28;20565;-86
2021/09/08 12:29:25;;;;;;;10.80;9.40;;;22.70;99.90;;;;;;4986894;28;20538;-86
2021/09/08 12:32:06;;;;;;;9.83;8.60;;;22.60;99.90;;;;;;5004732;28;20501;-86
2021/09/08 12:35:06;;;;;;;9.50;8.10;;;22.50;99.90;;;;;;5002820;28;20531;-86
2021/09/08 12:37:52;;;;;;;9.00;8.10;;;22.90;99.90;;;;;;5003090;28;20472;-86
2021/09/08 12:43:49;;;;;;;8.23;7.47;;;22.70;99.90;;;;;;5003441;28;20444;-86
2021/09/08 12:53:38;;;;;;;9.63;8.47;;;23.10;99.90;;;;;;4960689;29;20466;-86
2021/09/08 12:59:36;;;;;;;9.10;8.30;;;23.00;99.90;;;;;;5017306;28;20548;-85
2021/09/08 13:02:48;;;;;;;;;;;;;;;;;;;;;
2021/09/08 13:14:48;;;;;;;9.37;8.10;;;22.30;99.90;;;;;;4962668;29;20494;-86
2021/09/08 13:17:45;;;;;;;10.57;9.47;;;23.00;99.90;;;;;;4960825;28;20462;-85
2021/09/08 13:20:32;;;;;;;;;;;;;;;;;;;;;
2021/09/08 13:23:13;;;;;;;11.33;10.00;;;22.50;99.90;;;;;;4999899;28;20908;-86
2021/09/08 13:37:49;;;;;;;10.63;9.53;;;23.00;99.90;;;;;;5000373;28;20932;-85
2021/09/08 13:40:52;;;;;;;11.27;8.57;;;23.00;99.90;;;;;;5000591;28;20476;-86
2021/09/08 13:43:33;;;;;;;11.63;9.93;;;23.00;99.90;;;;;;5001784;28;20450;-86
2021/09/08 13:46:28;;;;;;;;;;;;;;;;;;;;;
2021/09/08 13:49:29;;;;;;;10.53;8.30;;;24.30;99.90;;;;;;5001133;28;20584;-85
2021/09/08 13:55:01;;;;;;;9.07;8.17;;;23.40;99.90;;;;;;4999900;28;20480;-85
2021/09/08 13:57:42;;;;;;;9.10;8.20;;;23.00;99.90;;;;;;5003803;28;20464;-85
2021/09/08 14:00:56;;;;;;;11.80;10.47;;;23.80;99.90;;;;;;5000709;28;20472;-85
2021/09/08 14:09:44;;;;;;;15.47;9.93;;;23.10;99.90;;;;;;4998460;28;20527;-85
2021/09/08 14:12:23;;;;;;;10.90;8.77;;;23.20;99.90;;;;;;5001825;28;20456;-85
2021/09/08 14:15:05;;;;;;;21.27;16.83;;;;;;;;;;5001279;28;20445;-86
2021/09/08 14:18:00;;;;;;;11.20;9.97;;;23.10;99.90;;;;;;5001331;28;20548;-85
2021/09/08 14:21:02;;;;;;;14.63;12.27;;;23.20;99.90;;;;;;5002947;28;20488;-85
2021/09/08 14:24:22;;;;;;;9.97;9.07;;;23.10;99.90;;;;;;5003891;28;20533;-85
2021/09/08 14:27:17;;;;;;;9.40;8.47;;;23.00;99.90;;;;;;5013551;28;20453;-85
2021/09/08 14:30:12;;;;;;;12.27;10.07;;;23.60;99.90;;;;;;5017375;28;20500;-85
2021/09/08 14:35:57;;;;;;;14.80;12.73;;;23.20;99.90;;;;;;5012241;28;20445;-85
2021/09/08 14:38:41;;;;;;;10.37;9.27;;;23.30;99.90;;;;;;5004298;28;20451;-86
2021/09/08 14:41:26;;;;;;;17.37;14.30;;;22.90;99.90;;;;;;5007484;28;20787;-86
2021/09/08 14:50:32;;;;;;;10.93;9.83;;;23.20;99.90;;;;;;5002738;28;20496;-86
2021/09/08 14:57:05;;;;;;;10.40;9.40;;;23.40;99.90;;;;;;4998183;28;20445;-85
2021/09/08 15:00:12;;;;;;;11.23;10.20;;;23.10;99.90;;;;;;4999383;28;20477;-86
2021/09/08 15:03:15;;;;;;;13.90;10.17;;;23.00;99.90;;;;;;5000079;28;20475;-86
2021/09/08 15:09:05;;;;;;;11.30;9.43;;;22.90;99.90;;;;;;5015797;28;20472;-86
2021/09/08 15:14:38;;;;;;;13.00;10.60;;;;;;;;;;5000796;28;20524;-86
2021/09/08 15:17:26;;;;;;;13.00;11.33;;;23.10;99.90;;;;;;4999790;28;20462;-86
2021/09/08 15:20:35;;;;;;;13.23;11.77;;;23.00;99.90;;;;;;4998797;28;20527;-86
2021/09/08 15:23:12;;;;;;;11.23;9.80;;;23.30;99.90;;;;;;4988744;28;20456;-86
2021/09/08 17:05:33;;;;;;;16.20;14.50;;;22.20;99.90;;;;;;5526985;23;20498;-85
2021/09/08 17:08:36;;;;;;;17.03;15.30;;;22.10;99.90;;;;;;4962503;28;20462;-86
2021/09/08 17:11:15;;;;;;;16.43;14.73;;;22.00;99.90;;;;;;4882101;29;20498;-85
2021/09/08 17:14:02;;;;;;;18.37;15.87;;;22.00;99.90;;;;;;4883151;29;20482;-85
2021/09/08 17:22:55;;;;;;;16.07;13.23;;;21.80;99.90;;;;;;4947344;29;20439;-85
2021/09/08 17:25:45;;;;;;;15.67;13.40;;;21.70;99.90;;;;;;4960485;29;20456;-85
2021/09/08 17:28:29;;;;;;;16.30;13.60;;;21.70;99.90;;;;;;4959031;29;20459;-86
2021/09/08 17:31:30;;;;;;;15.93;13.80;;;21.60;99.90;;;;;;4949003;29;20479;-85
2021/09/08 17:34:18;;;;;;;18.03;14.97;;;24.10;99.90;;;;;;4949679;29;20969;-85
2021/09/08 17:36:57;;;;;;;17.03;15.33;;;21.50;99.90;;;;;;4945619;29;20805;-85
2021/09/08 17:45:17;;;;;;;17.40;14.50;;;21.30;99.90;;;;;;4904225;29;20449;-87
2021/09/08 17:47:59;;;;;;;17.77;13.80;;;;;;;;;;4941022;29;20451;-85
2021/09/08 17:50:44;;;;;;;17.47;15.63;;;21.10;99.90;;;;;;4941967;29;20525;-86
2021/09/08 17:56:33;;;;;;;;;;;;;;;;;;;;;
2021/09/08 17:59:20;;;;;;;21.33;18.97;;;21.00;99.90;;;;;;4943016;29;20527;-85
2021/09/08 18:01:50;;;;;;;29.87;22.40;;;;;;;;;;4947688;29;20432;-86
2021/09/08 18:04:36;;;;;;;25.00;22.30;;;20.90;99.90;;;;;;4945048;29;20555;-87
2021/09/08 18:07:09;;;;;;;23.57;19.70;;;;;;;;;;4941842;29;20543;-85
2021/09/08 18:09:47;;;;;;;22.23;19.40;;;20.80;99.90;;;;;;4940517;29;20491;-86
2021/09/08 18:12:29;;;;;;;20.13;18.10;;;20.70;99.90;;;;;;4941400;29;20545;-87
2021/09/08 18:15:06;;;;;;;21.50;18.10;;;21.10;99.90;;;;;;4941448;29;20455;-85
2021/09/08 18:18:00;;;;;;;24.60;20.80;;;20.70;99.90;;;;;;4943394;29;20514;-86
2021/09/08 18:20:53;;;;;;;23.47;17.37;;;20.70;99.90;;;;;;4937633;29;20873;-86
2021/09/08 18:23:30;;;;;;;19.57;16.93;;;20.60;99.90;;;;;;4935802;29;20466;-86
2021/09/08 18:26:20;;;;;;;20.77;17.60;;;19.80;99.90;;;;;;4941379;29;20443;-85
2021/09/08 18:34:28;;;;;;;21.90;18.40;;;20.50;99.90;;;;;;4933259;29;20439;-86
2021/09/08 18:37:10;;;;;;;18.60;16.67;;;;;;;;;;4941814;29;20519;-86
2021/09/08 18:39:39;;;;;;;21.90;17.60;;;;;;;;;;4942014;29;20455;-86
2021/09/08 18:42:52;;;;;;;19.87;16.77;;;20.40;99.90;;;;;;4940631;29;20533;-87
2021/09/08 18:48:35;;;;;;;22.40;19.57;;;20.30;99.90;;;;;;4942415;29;20479;-86
2021/09/08 18:51:37;;;;;;;25.07;20.07;;;20.00;99.90;;;;;;4943506;29;20518;-86
2021/09/08 18:54:29;;;;;;;19.63;17.53;;;20.20;99.90;;;;;;4945845;29;20891;-85
2021/09/08 18:57:27;;;;;;;;;;;;;;;;;;;;;
2021/09/08 19:00:20;;;;;;;24.90;18.50;;;20.50;99.90;;;;;;4945570;29;20456;-86
2021/09/08 19:03:26;;;;;;;19.17;17.27;;;20.20;99.90;;;;;;4947377;29;20466;-85
2021/09/08 19:06:29;;;;;;;19.47;16.90;;;20.90;99.90;;;;;;4927115;29;20546;-85
2021/09/08 19:09:46;;;;;;;20.80;16.70;;;20.10;99.90;;;;;;4937287;29;20470;-86
2021/09/08 19:12:38;;;;;;;25.60;19.20;;;20.00;99.90;;;;;;4943546;29;20859;-86
2021/09/08 19:15:26;;;;;;;21.07;18.93;;;21.90;99.90;;;;;;4941737;29;20452;-86
2021/09/08 19:18:01;;;;;;;21.70;17.57;;;;;;;;;;4942111;29;20474;-86
2021/09/08 19:20:38;;;;;;;26.37;19.77;;;20.30;99.90;;;;;;4943041;29;20542;-85
2021/09/08 19:23:25;;;;;;;21.67;18.43;;;20.20;99.90;;;;;;4942760;29;20479;-86
2021/09/08 19:25:54;;;;;;;27.13;19.73;;;;;;;;;;4942743;29;20459;-86
2021/09/08 19:28:37;;;;;;;19.77;17.67;;;19.90;99.90;;;;;;4943393;29;20478;-85
2021/09/08 19:31:31;;;;;;;20.00;17.90;;;19.80;99.90;;;;;;4943644;29;20483;-85
2021/09/08 19:34:15;;;;;;;19.20;17.17;;;;;;;;;;4948139;29;20534;-86
2021/09/08 19:36:53;;;;;;;20.47;16.77;;;19.80;99.90;;;;;;4952429;28;20815;-86
2021/09/08 19:39:29;;;;;;;17.80;15.97;;;;;;;;;;4942253;29;20570;-86
2021/09/08 19:48:27;;;;;;;22.57;17.80;;;19.90;99.90;;;;;;4924446;29;20503;-86
2021/09/08 19:51:14;;;;;;;18.97;16.87;;;19.60;99.90;;;;;;4945974;29;20483;-86
2021/09/08 19:56:53;;;;;;;19.90;17.73;;;19.50;99.90;;;;;;4943078;29;20455;-86
2021/09/08 19:59:27;;;;;;;21.03;16.90;;;;;;;;;;4937960;29;20526;-85
2021/09/08 20:08:45;;;;;;;;;;;;;;;;;;;;;
2021/09/08 20:14:07;;;;;;;20.10;17.33;;;;;;;;;;4947840;29;20587;-86
2021/09/08 20:16:51;;;;;;;21.77;17.00;;;19.30;99.90;;;;;;4944927;29;20494;-86
2021/09/08 20:22:23;;;;;;;20.63;18.13;;;19.40;99.90;;;;;;4935886;29;20451;-86
2021/09/08 20:24:53;;;;;;;18.60;16.30;;;;;;;;;;4940417;29;20458;-87
2021/09/08 20:33:44;;;;;;;27.37;17.50;;;19.10;99.90;;;;;;4943347;29;20471;-86
2021/09/08 20:36:23;;;;;;;21.47;17.87;;;18.60;99.90;;;;;;4945934;29;20502;-87
2021/09/08 20:39:03;;;;;;;20.30;17.13;;;18.90;99.90;;;;;;4944275;29;20546;-86
2021/09/08 20:41:57;;;;;;;28.53;18.57;;;18.90;99.90;;;;;;4942391;29;20455;-86
2021/09/08 20:44:30;;;;;;;22.07;19.60;;;;;;;;;;4944748;29;20539;-86
2021/09/08 20:52:43;;;;;;;22.73;18.93;;;18.60;99.90;;;;;;4944944;29;20447;-86
2021/09/08 20:55:26;;;;;;;23.63;18.90;;;18.20;99.90;;;;;;4943653;29;20408;-86
2021/09/08 20:58:04;;;;;;;20.33;18.13;;;;;;;;;;4944401;29;20919;-86
2021/09/08 21:00:43;;;;;;;22.63;19.07;;;18.50;99.90;;;;;;4943384;29;20468;-86
2021/09/08 21:03:25;;;;;;;19.90;17.80;;;18.50;99.90;;;;;;4943126;29;20455;-86
2021/09/08 21:06:16;;;;;;;24.90;21.70;;;18.40;99.90;;;;;;4943223;29;20470;-86
2021/09/08 21:08:55;;;;;;;21.63;18.27;;;18.50;99.90;;;;;;4944312;29;20471;-87
2021/09/08 21:11:50;;;;;;;24.50;19.10;;;18.40;99.90;;;;;;4943379;29;20534;-86
2021/09/08 21:14:50;;;;;;;;;;;;;;;;;;;;;
2021/09/08 21:17:35;;;;;;;23.63;18.30;;;17.90;99.90;;;;;;4944170;29;20431;-85
2021/09/08 21:20:06;;;;;;;23.33;17.97;;;;;;;;;;4944179;29;20530;-86
2021/09/08 21:22:57;;;;;;;;;;;;;;;;;;;;;
2021/09/08 21:28:41;;;;;;;21.83;18.90;;;18.10;99.90;;;;;;4943312;29;20442;-86
2021/09/08 21:31:19;;;;;;;21.80;17.83;;;18.90;99.90;;;;;;4942822;29;20570;-85
2021/09/08 21:34:17;;;;;;;23.27;18.83;;;18.20;99.90;;;;;;4943023;29;20763;-85
2021/09/08 21:36:59;;;;;;;21.57;18.77;;;17.70;99.90;;;;;;4943788;29;20491;-86
2021/09/08 21:39:42;;;;;;;24.93;19.63;;;15.10;99.90;;;;;;4943444;29;20574;-86
2021/09/08 21:42:30;;;;;;;26.80;20.50;;;18.00;99.90;;;;;;4945004;29;20428;-86
2021/09/08 21:44:58;;;;;;;22.73;20.00;;;;;;;;;;4944370;29;20451;-86
2021/09/08 21:47:24;;;;;;;22.57;18.70;;;18.00;99.90;;;;;;4944402;29;20447;-86
2021/09/08 21:49:52;;;;;;;21.50;18.10;;;17.80;99.90;;;;;;4945220;29;20990;-86
2021/09/08 21:52:30;;;;;;;22.57;18.50;;;17.90;99.90;;;;;;4960550;28;20471;-86
2021/09/08 21:55:03;;;;;;;26.33;20.40;;;;;;;;;;4955709;28;20444;-86
2021/09/08 21:57:46;;;;;;;23.27;20.77;;;17.70;99.90;;;;;;4945587;29;20500;-86
2021/09/08 22:00:18;;;;;;;25.97;21.93;;;17.40;99.90;;;;;;4944824;29;20486;-86
2021/09/08 22:02:51;;;;;;;23.60;20.97;;;17.70;99.90;;;;;;4943685;29;20511;-85
2021/09/08 22:05:21;;;;;;;22.70;19.80;;;;;;;;;;4944210;29;20526;-85
2021/09/08 22:08:07;;;;;;;25.63;21.27;;;17.50;99.90;;;;;;4944227;29;20480;-86
2021/09/08 22:10:37;;;;;;;25.57;20.17;;;20.20;99.90;;;;;;4944374;29;20472;-85
2021/09/08 22:13:40;;;;;;;28.80;24.60;;;17.70;99.90;;;;;;4945052;29;20628;-85
2021/09/08 22:16:18;;;;;;;26.10;21.63;;;17.50;99.90;;;;;;4944714;29;20575;-86
2021/09/08 22:19:02;;;;;;;22.47;20.07;;;17.40;99.90;;;;;;4944081;29;20480;-86
2021/09/08 22:27:12;;;;;;;22.43;20.13;;;17.40;99.90;;;;;;4943242;29;20552;-86
2021/09/08 22:32:52;;;;;;;23.17;20.37;;;17.10;99.90;;;;;;4941895;29;20475;-87
2021/09/08 22:36:01;;;;;;;21.90;19.43;;;17.10;99.90;;;;;;4868002;29;20455;-85
2021/09/08 22:38:50;;;;;;;24.10;18.97;;;17.10;99.90;;;;;;4946004;29;20491;-87
2021/09/08 22:41:25;;;;;;;24.93;20.30;;;17.50;99.90;;;;;;4944795;29;20503;-85
2021/09/08 22:44:04;;;;;;;22.47;20.03;;;17.10;99.90;;;;;;4945419;29;20946;-86
2021/09/08 22:46:41;;;;;;;25.83;19.87;;;17.10;99.90;;;;;;4955846;29;20515;-86
2021/09/08 22:49:27;;;;;;;21.10;18.83;;;17.30;99.90;;;;;;4958546;29;20480;-86
2021/09/08 22:52:25;;;;;;;23.37;20.87;;;17.00;99.90;;;;;;4958259;29;20507;-85
2021/09/08 22:54:52;;;;;;;27.10;20.83;;;;;;;;;;4944713;29;20914;-85
2021/09/08 22:57:30;;;;;;;26.67;21.67;;;17.00;99.90;;;;;;4944425;29;20870;-86
2021/09/08 22:59:59;;;;;;;27.57;21.43;;;;;;;;;;4942562;29;20467;-86
2021/09/08 23:02:36;;;;;;;25.13;22.20;;;16.90;99.90;;;;;;4945260;29;20483;-86
2021/09/08 23:05:10;;;;;;;23.90;21.20;;;17.20;99.90;;;;;;4942123;29;20467;-86
2021/09/08 23:07:37;;;;;;;31.70;21.13;;;;;;;;;;4942165;29;20459;-86